Flight Track Log - Related Links

Times and Time Zones

All times are in EDT time to prevent confusion due to time zone crossing. See the AWI3551 flight status page for this flight to view local times or setup timezone preferences in your user account.

Time Position Orientation Groundspeed Altitude Reporting Facility
EDT Latitude Longitude Course Direction KTS MPH feet Rate Location/Type
Fri 05:35:55 AM 42.9333 -78.7500 174° South 166 191 1,600  Level Buffalo TRACON
Fri 05:36:50 AM 42.9000 -78.7833 216° Southwest 204 235 3,400 1,951 Climbing Buffalo TRACON
Fri 05:37:58 AM 42.8236 -78.7886 183° South 272 313 5,600 2,109 Climbing Cleveland Center
Fri 05:38:00 AM 42.6114 -78.6823 172° South  Level FlightAware Approximate
Fri 05:38:58 AM 42.7461 -78.7708 170° South 278 320 7,900  Level Cleveland Center
Fri 05:39:00 AM 42.5162 -78.6638 173° South  Level FlightAware Approximate
Fri 05:39:58 AM 42.6622 -78.7453 167° South 278 320 10,300  Level Cleveland Center
Fri 05:40:00 AM 42.4206 -78.6500 180° South  Level FlightAware Approximate
Fri 05:40:58 AM 42.5764 -78.7194 168° South 286 329 12,300  Level Cleveland Center
Fri 05:41:00 AM 42.3246 -78.6440 174° South  Level FlightAware Approximate
Fri 05:41:58 AM 42.4819 -78.6772 162° South 324 373 14,400  Level Cleveland Center
Fri 05:42:58 AM 42.3875 -78.6378 163° South 349 402 16,300 1,750 Climbing Cleveland Center
Fri 05:43:58 AM 42.2889 -78.5903 160° South 372 428 17,900 1,650 Climbing Cleveland Center
Fri 05:44:58 AM 42.1858 -78.5458 162° South 383 441 19,600 1,600 Climbing Cleveland Center
Fri 05:45:58 AM 42.0808 -78.5017 163° South 388 447 21,100 1,350 Climbing Cleveland Center
Fri 05:46:58 AM 41.9758 -78.4547 162° South 388 447 22,300 950 Climbing Cleveland Center
Fri 05:47:58 AM 41.8686 -78.4056 161° South 398 458 23,000 350 Climbing Cleveland Center
Fri 05:48:58 AM 41.7550 -78.3564 162° South 409 471 23,000  Level Cleveland Center
Fri 05:49:58 AM 41.6456 -78.3103 163° South 414 476 23,000  Level Cleveland Center
Fri 05:50:58 AM 41.5383 -78.2611 161° South 414 476 23,000  Level Cleveland Center
Fri 05:51:58 AM 41.4269 -78.2153 163° South 414 476 23,000  Level Cleveland Center
Fri 05:52:37 AM 41.3586 -78.1847 161° South 412 474 23,000  Level New York Center
Fri 05:53:38 AM 41.2533 -78.1372 161° South 417 480 23,000  Level New York Center
Fri 05:54:38 AM 41.1436 -78.0922 163° South 412 474 23,000  Level New York Center
Fri 05:55:39 AM 41.0358 -78.0475 163° South 412 474 23,000 -252 Level New York Center
Fri 05:56:37 AM 40.9306 -77.9978 160° South 412 474 22,500 -661 Descending New York Center
Fri 05:57:37 AM 40.8511 -77.8961 136° Southeast 392 451 21,700 -793 Descending New York Center
Fri 05:58:38 AM 40.7786 -77.7844 131° Southeast 392 451 20,900 -744 Descending New York Center
Fri 05:59:38 AM 40.7100 -77.6733 129° Southeast 392 451 20,200 -763 Descending New York Center
Fri 06:00:36 AM 40.6569 -77.5475 119° Southeast 392 451 19,400 -800 Descending New York Center
Fri 06:01:38 AM 40.6092 -77.4361 119° Southeast 392 451 18,600 -689 Descending New York Center
Fri 06:02:38 AM 40.5500 -77.2992 120° Southeast 392 451 18,000 -300 Descending New York Center
Fri 06:03:38 AM 40.5039 -77.1883 119° Southeast 392 451 18,000  Level New York Center
Fri 06:04:39 AM 40.4483 -77.0578 119° Southeast 387 445 18,000  Level New York Center
Fri 06:05:36 AM 40.3983 -76.9386 119° Southeast 381 438 18,000 -203 Level New York Center
Fri 06:06:37 AM 40.3611 -76.8128 111° Southeast 381 438 17,600 -793 Descending New York Center
Fri 06:07:37 AM 40.3281 -76.6819 108° East 376 433 16,400 -1,140 Descending New York Center
Fri 06:08:38 AM 40.2964 -76.5675 110° East 371 427 15,300 -1,230 Descending New York Center
Fri 06:09:39 AM 40.2631 -76.4342 108° East 364 419 13,900 -1,271 Descending New York Center
Fri 06:10:36 AM 40.2294 -76.3117 110° East 357 411 12,800 -1,220 Descending New York Center
Fri 06:11:37 AM 40.1975 -76.1897 109° East 357 411 11,500 -1,190 Descending New York Center
Fri 06:12:37 AM 40.1692 -76.0786 108° East 357 411 10,400 -1,033 Descending New York Center
Fri 06:13:39 AM 40.1392 -75.9569 108° East 330 380 9,400 -900 Descending New York Center
Fri 06:14:37 AM 40.1117 -75.8681 112° Southeast 297 342 8,600 -712 Descending New York Center
Fri 06:15:37 AM 40.0831 -75.7575 109° East 297 342 8,000 -350 Descending New York Center
Fri 06:16:37 AM 40.0767 -75.6619 95° East 291 335 7,900 -496 Descending New York Center
Fri 06:17:38 AM 40.0711 -75.5475 94° East 286 329 7,000 -683 Descending New York Center
Fri 06:18:40 AM 40.0664 -75.4550 94° East 286 329 6,500 -504 Descending New York Center
Fri 06:19:37 AM 40.0622 -75.3489 93° East 275 316 6,000 -256 Descending New York Center
Fri 06:20:37 AM 40.0450 -75.2556 104° East 264 304 6,000  Level New York Center
Fri 06:21:38 AM 40.0189 -75.1700 112° Southeast 254 292 6,000 -393 Level New York Center
Fri 06:22:39 AM 39.9925 -75.0953 115° Southeast 233 268 5,200 -1,140 Descending New York Center
Fri 06:23:39 AM 39.9658 -75.0311 118° Southeast 216 249 3,700 -1,500 Descending New York Center

Login

Don't have an account? Register now (free) for customized features, flight alerts, and more!